Flinterborg — PHPH — position and weather

sailwx.info

Track history (hours):
 
Tides and Currents Weather Stations Pressure Air Temp Water Temp Dewpoint Dewpoint Depression Visibility Wind Speed Wind Dir Waves Ship Positions

Flinterborg

Last reported at 2016-Feb-09 00:31 UTC. Time now 2016-Feb-09 01:28 UTC.
Position N 52°44' E 003°38'.

Length 111 m; draft 6 m.

Type: Ship. MMSI: 245433000.

Date/timePositionNaut miles runAvg speedWind from/ knotsBaromVisibWave heightAir tempDewpointWater temp
2016-Feb-09 00:31N 52°44' E 003°38'72 4.8
2016-Feb-08 09:33N 53°34' E 005°05'6 6.1
2016-Feb-08 08:32N 53°36' E 005°15'6 6.1
2016-Feb-08 07:33N 53°38' E 005°24'6 6.0
2016-Feb-08 06:32N 53°39' E 005°34'7 6.3
2016-Feb-08 05:29N 53°42' E 005°45'6 5.5
2016-Feb-08 04:19N 53°43' E 005°55'5 5.7
2016-Feb-08 03:30N 53°45' E 006°02'7 7.1
2016-Feb-08 02:33N 53°47' E 006°13'8 7.6
2016-Feb-08 01:33N 53°50' E 006°25'8 8.2
2016-Feb-08 00:33N 53°52' E 006°39'8 8.3
2016-Feb-07 23:33N 53°54' E 006°53'8 8.3
2016-Feb-07 22:33N 53°56' E 007°06'9 8.7
2016-Feb-07 21:33N 53°58' E 007°21'8 8.3
2016-Feb-07 20:33N 53°60' E 007°34'9 8.6
2016-Feb-07 19:33N 54°02' E 007°49'9 8.9
2016-Feb-07 18:33N 54°01' E 008°04'9 9.3
2016-Feb-07 17:33N 53°60' E 008°19'1312.7
2016-Feb-07 16:33N 53°56' E 008°40'1312.6
2016-Feb-07 15:33N 53°51' E 009°00'6 5.6
2016-Feb-07 14:33N 53°54' E 009°09'2 1.6
2016-Feb-07 13:33N 53°55' E 009°11'0 0.0
2016-Feb-07 12:33N 53°55' E 009°11'0 0.0
2016-Feb-07 11:33N 53°55' E 009°11'0 0.0
2016-Feb-07 10:33N 53°55' E 009°11'0 0.0
2016-Feb-07 09:33N 53°55' E 009°11'0 0.0
2016-Feb-07 08:33N 53°55' E 009°11'0 0.0
2016-Feb-07 07:33N 53°55' E 009°11'0 0.0
2016-Feb-07 06:33N 53°55' E 009°11'29 7.1
2016-Feb-07 02:33N 54°18' E 009°40'5 4.8
2016-Feb-07 01:34N 54°21' E 009°46'8 7.5
2016-Feb-07 00:33N 54°21' E 009°59'6 5.8
2016-Feb-06 23:33N 54°22' E 010°09'1 1.0
2016-Feb-06 22:33N 54°22' E 010°10'7 7.2
2016-Feb-06 21:33N 54°29' E 010°16'1311.5
2016-Feb-06 20:24N 54°35' E 010°36'1012.0
2016-Feb-06 19:34N 54°35' E 010°54'1212.2
2016-Feb-06 18:33N 54°35' E 011°15'1312.7
2016-Feb-06 17:34N 54°30' E 011°35'1312.6
2016-Feb-06 16:33N 54°27' E 011°56'1110.4
2016-Feb-06 15:29N 54°33' E 012°13'1111.9
2016-Feb-06 14:33N 54°41' E 012°26'4212.4
2016-Feb-06 11:09N 54°58' E 013°32'712.0
2016-Feb-06 10:33N 55°01' E 013°44'1212.2
2016-Feb-06 09:33N 55°06' E 014°03'1212.0
2016-Feb-06 08:34N 55°14' E 014°18'1212.2
2016-Feb-06 07:34N 55°23' E 014°32'1212.0
2016-Feb-06 06:33N 55°30' E 014°49'1212.2
2016-Feb-06 05:32N 55°37' E 015°08'10511.7
2016-Feb-05 20:33N 56°54' E 017°16'1312.4
2016-Feb-05 19:29N 57°06' E 017°26'1112.4
2016-Feb-05 18:34N 57°16' E 017°34'  
2016-Jan-30 14:33N 59°38' E 020°58'1010.1
2016-Jan-30 13:33N 59°35' E 021°17'9 9.1
2016-Jan-30 12:33N 59°35' E 021°35'9 8.8
2016-Jan-30 11:33N 59°36' E 021°53'9 8.7
2016-Jan-30 10:33N 59°36' E 022°10'38 7.5
2016-Jan-30 05:28N 59°40' E 023°25'5 5.7
2016-Jan-30 04:31N 59°41' E 023°36'7 5.7
2016-Jan-30 03:19N 59°43' E 023°49'  
Track history (hours):
 
Tides and Currents Weather Stations Pressure Air Temp Water Temp Dewpoint Dewpoint Depression Visibility Wind Speed Wind Dir Waves Ship Positions

Flinterborg

Last reported at 2016-Feb-09 00:31 UTC. Time now 2016-Feb-09 01:28 UTC.
Position N 52°44' E 003°38'.

Length 111 m; draft 6 m.

Type: Ship. MMSI: 245433000.

Date/timePositionNaut miles runAvg speedWind from/ knotsBaromVisibWave heightAir tempDewpointWater temp
2016-Feb-09 00:31N 52°44' E 003°38'72 4.8
2016-Feb-08 09:33N 53°34' E 005°05'6 6.1
2016-Feb-08 08:32N 53°36' E 005°15'6 6.1
2016-Feb-08 07:33N 53°38' E 005°24'6 6.0
2016-Feb-08 06:32N 53°39' E 005°34'7 6.3
2016-Feb-08 05:29N 53°42' E 005°45'6 5.5
2016-Feb-08 04:19N 53°43' E 005°55'5 5.7
2016-Feb-08 03:30N 53°45' E 006°02'7 7.1
2016-Feb-08 02:33N 53°47' E 006°13'8 7.6
2016-Feb-08 01:33N 53°50' E 006°25'8 8.2
2016-Feb-08 00:33N 53°52' E 006°39'8 8.3
2016-Feb-07 23:33N 53°54' E 006°53'8 8.3
2016-Feb-07 22:33N 53°56' E 007°06'9 8.7
2016-Feb-07 21:33N 53°58' E 007°21'8 8.3
2016-Feb-07 20:33N 53°60' E 007°34'9 8.6
2016-Feb-07 19:33N 54°02' E 007°49'9 8.9
2016-Feb-07 18:33N 54°01' E 008°04'9 9.3
2016-Feb-07 17:33N 53°60' E 008°19'1312.7
2016-Feb-07 16:33N 53°56' E 008°40'1312.6
2016-Feb-07 15:33N 53°51' E 009°00'6 5.6
2016-Feb-07 14:33N 53°54' E 009°09'2 1.6
2016-Feb-07 13:33N 53°55' E 009°11'0 0.0
2016-Feb-07 12:33N 53°55' E 009°11'0 0.0
2016-Feb-07 11:33N 53°55' E 009°11'0 0.0
2016-Feb-07 10:33N 53°55' E 009°11'0 0.0
2016-Feb-07 09:33N 53°55' E 009°11'0 0.0
2016-Feb-07 08:33N 53°55' E 009°11'0 0.0
2016-Feb-07 07:33N 53°55' E 009°11'0 0.0
2016-Feb-07 06:33N 53°55' E 009°11'29 7.1
2016-Feb-07 02:33N 54°18' E 009°40'5 4.8
2016-Feb-07 01:34N 54°21' E 009°46'8 7.5
2016-Feb-07 00:33N 54°21' E 009°59'6 5.8
2016-Feb-06 23:33N 54°22' E 010°09'1 1.0
2016-Feb-06 22:33N 54°22' E 010°10'7 7.2
2016-Feb-06 21:33N 54°29' E 010°16'1311.5
2016-Feb-06 20:24N 54°35' E 010°36'1012.0
2016-Feb-06 19:34N 54°35' E 010°54'1212.2
2016-Feb-06 18:33N 54°35' E 011°15'1312.7
2016-Feb-06 17:34N 54°30' E 011°35'1312.6
2016-Feb-06 16:33N 54°27' E 011°56'1110.4
2016-Feb-06 15:29N 54°33' E 012°13'1111.9
2016-Feb-06 14:33N 54°41' E 012°26'4212.4
2016-Feb-06 11:09N 54°58' E 013°32'712.0
2016-Feb-06 10:33N 55°01' E 013°44'1212.2
2016-Feb-06 09:33N 55°06' E 014°03'1212.0
2016-Feb-06 08:34N 55°14' E 014°18'1212.2
2016-Feb-06 07:34N 55°23' E 014°32'1212.0
2016-Feb-06 06:33N 55°30' E 014°49'1212.2
2016-Feb-06 05:32N 55°37' E 015°08'10511.7
2016-Feb-05 20:33N 56°54' E 017°16'1312.4
2016-Feb-05 19:29N 57°06' E 017°26'1112.4
2016-Feb-05 18:34N 57°16' E 017°34'  
2016-Jan-30 14:33N 59°38' E 020°58'1010.1
2016-Jan-30 13:33N 59°35' E 021°17'9 9.1
2016-Jan-30 12:33N 59°35' E 021°35'9 8.8
2016-Jan-30 11:33N 59°36' E 021°53'9 8.7
2016-Jan-30 10:33N 59°36' E 022°10'38 7.5
2016-Jan-30 05:28N 59°40' E 023°25'5 5.7
2016-Jan-30 04:31N 59°41' E 023°36'7 5.7
2016-Jan-30 03:19N 59°43' E 023°49'  

Dump ship's entire track history